Latest Weather Observations for Cooktown

IDQ60801

Issued at 10:02 am EST Thursday 29 January 2015 (issued every 30 minutes, with the page automatically refreshed every 10 minutes)

About weather observations | Map of weather stations | Latest weather observations for QLD | Other Formats
Station Details ID: 031209 Name: COOKTOWN AIRPORT Lat: -15.45 Lon: 145.19 Height: 4.8 m
Data from the previous 72 hours. | See also: Recent months at Cooktown
Date/Time
EST
Temp
°C
App
Temp
°C
Dew
Point
Rel
Hum
%
Delta-T
°C
Wind Press
QNH
hPa
Press
MSL
hPa
Rain
since 9 am
mm
Dir
 
Spd
km/h
Gust
km/h
Spd
kts
Gust
kts
29/10:00am 31.0 31.7 21.5 57 6.4 WNW 20 30 11 16 1003.9 - 0.0
29/09:30am 30.1 30.7 21.3 59 5.9 WNW 20 30 11 16 1004.0 - 0.0
29/09:00am 29.7 31.0 21.7 62 5.4 WNW 17 22 9 12 1004.0 1003.9 0.0
29/08:30am 28.6 29.9 22.4 69 4.2 WNW 19 26 10 14 1004.0 - 0.0
29/08:00am 27.6 29.8 22.6 74 3.4 WNW 15 22 8 12 1003.8 - 0.0
29/07:30am 26.7 29.1 23.0 80 2.5 WNW 15 20 8 11 1003.6 - 0.0
29/07:00am 25.9 28.6 22.8 83 2.1 NW 13 17 7 9 1003.3 - 0.0
29/06:30am 25.0 28.5 22.8 87 1.5 WNW 9 13 5 7 1003.0 - 0.0
29/06:00am 25.2 28.6 22.7 86 1.7 W 9 13 5 7 1002.6 1002.5 0.0
29/05:30am 25.2 28.6 22.7 86 1.7 W 9 15 5 8 1002.4 - 0.0
29/05:00am 25.2 28.7 22.8 86 1.6 WNW 9 13 5 7 1002.4 - 0.0
29/04:30am 25.0 28.5 22.8 87 1.5 WNW 9 11 5 6 1002.2 - 0.0
29/04:00am 25.3 29.1 22.8 86 1.7 W 7 11 4 6 1002.4 - 0.0
29/03:30am 24.9 28.0 22.8 88 1.4 NW 11 13 6 7 1002.4 - 0.0
29/03:00am 26.0 28.6 22.6 81 2.3 NW 13 15 7 8 1002.3 - 0.0
29/02:30am 26.1 28.8 22.9 82 2.2 NW 13 17 7 9 1002.4 - 0.0
29/02:00am 26.3 29.3 23.4 84 2.0 NW 13 17 7 9 1002.5 - 0.0
29/01:30am 26.8 30.7 23.6 82 2.2 NW 9 13 5 7 1002.7 - 0.0
29/01:00am 27.3 30.8 23.5 80 2.6 NW 11 15 6 8 1003.0 - 0.0
29/12:30am 27.4 31.5 23.9 81 2.4 WNW 9 13 5 7 1003.1 - 0.0
29/12:00am 27.7 32.0 23.6 78 2.8 W 7 11 4 6 1003.4 1003.3 0.0
 
Date/Time
EST
Temp
°C
App
Temp
°C
Dew
Point
Rel
Hum
%
Delta-T
°C
Wind Press
QNH
hPa
Press
MSL
hPa
Rain
since 9 am
mm
Dir
 
Spd
km/h
Gust
km/h
Spd
kts
Gust
kts
28/11:30pm 27.3 30.9 23.7 81 2.5 NW 11 13 6 7 1003.7 - 0.0
28/11:00pm 27.0 30.6 23.7 82 2.3 NW 11 13 6 7 1003.7 - 0.0
28/10:30pm 27.7 31.5 23.5 78 2.9 WNW 9 13 5 7 1003.6 - 0.0
28/10:00pm 28.8 30.7 22.8 70 4.1 WNW 17 24 9 13 1003.5 - 0.0
28/09:30pm 28.9 31.8 23.1 71 4.0 NW 13 17 7 9 1003.1 - 0.0
28/09:00pm 29.3 32.2 23.2 69 4.2 WNW 13 17 7 9 1002.6 1002.5 0.0
28/08:30pm 29.8 32.8 23.3 68 4.5 NW 13 17 7 9 1002.1 - 0.0
28/08:00pm 29.7 34.2 23.6 69 4.2 NW 6 13 3 7 1002.1 - 0.0
28/07:30pm 29.9 34.8 23.1 67 4.7 SE 2 7 1 4 1001.3 - 0.0
28/07:00pm 30.8 34.2 22.0 59 6.0 SSW 7 13 4 7 1001.0 - 0.0
28/06:30pm 32.4 35.8 24.0 61 5.9 NNW 13 20 7 11 1000.3 - 0.0
28/06:00pm 33.1 37.0 24.3 60 6.2 N 11 19 6 10 999.6 999.5 0.0
28/05:30pm 33.2 36.6 24.1 59 6.4 N 13 17 7 9 999.3 - 0.0
28/05:00pm 33.5 36.0 23.8 57 6.8 N 17 22 9 12 999.0 - 0.0
28/04:30pm 34.4 36.6 24.0 54 7.3 NNW 19 28 10 15 998.9 - 0.0
28/04:00pm 34.3 36.6 23.4 53 7.6 N 17 24 9 13 998.7 - 0.0
28/03:30pm 34.7 38.1 24.7 56 7.1 NNW 15 24 8 13 998.8 - 0.0
28/03:00pm 33.5 35.7 23.9 57 6.7 NNW 19 26 10 14 999.4 999.3 0.0
28/02:30pm 32.6 35.6 24.7 63 5.6 WNW 17 24 9 13 1000.1 - 0.0
28/02:00pm 33.2 35.4 21.8 51 7.7 WSW 13 20 7 11 1000.1 - 0.0
28/01:30pm 34.0 35.0 21.0 46 8.8 W 17 28 9 15 1000.1 - 0.0
28/01:00pm 34.5 37.9 22.0 48 8.5 WSW 7 13 4 7 1000.2 - 0.0
28/12:30pm 34.8 37.2 23.0 50 8.2 W 15 26 8 14 1000.7 - 0.0
28/12:00pm 34.9 37.5 22.6 49 8.5 WSW 13 20 7 11 1001.3 1001.2 0.0
28/11:30am 34.3 37.5 23.7 54 7.4 WSW 13 20 7 11 1001.6 - 0.0
28/11:00am 33.5 37.2 23.9 57 6.7 W 11 20 6 11 1002.1 - 0.0
28/10:30am 32.7 36.2 24.8 63 5.6 W 15 22 8 12 1002.2 - 0.0
28/10:00am 32.4 35.6 24.9 64 5.3 W 17 24 9 13 1002.2 - 0.0
28/09:30am 31.8 35.2 24.7 66 5.0 WSW 15 26 8 14 1002.2 - 0.0
28/09:00am 30.7 34.8 24.6 70 4.3 W 11 19 6 10 1002.4 1002.3 4.8
28/08:30am 29.4 33.1 24.5 75 3.4 W 13 19 7 10 1002.7 - 4.8
28/08:00am 28.7 32.1 24.1 76 3.2 W 13 20 7 11 1002.6 - 4.8
28/07:30am 28.0 32.1 24.0 79 2.8 WSW 9 13 5 7 1002.6 - 4.8
28/07:00am 27.7 31.2 23.5 78 2.9 W 11 17 6 9 1002.3 - 4.8
28/06:30am 26.7 30.8 23.3 81 2.3 WSW 7 11 4 6 1002.0 - 4.8
28/06:00am 26.0 30.5 23.7 87 1.6 WSW 6 9 3 5 1001.7 1001.7 4.8
28/05:30am 26.1 30.3 23.2 84 2.0 WSW 6 9 3 5 1001.7 - 4.8
28/05:00am 26.3 30.2 22.9 81 2.3 W 7 9 4 5 1001.4 - 4.8
28/04:30am 26.0 29.3 23.2 84 1.9 WNW 11 17 6 9 1001.1 - 4.8
28/04:00am 25.2 29.4 23.4 90 1.2 NW 7 9 4 5 1001.2 - 4.8
28/03:30am 25.2 30.1 23.6 91 1.1 WNW 4 9 2 5 1001.1 - 4.8
28/03:00am 25.0 30.9 24.1 95 0.6 CALM 0 0 0 0 1001.0 1000.9 4.8
28/02:30am 25.5 31.3 23.9 91 1.1 CALM 0 0 0 0 1001.0 - 4.8
28/02:00am 25.6 30.3 23.9 90 1.2 W 6 7 3 4 1001.5 - 4.8
28/01:30am 25.7 30.1 23.8 89 1.3 WSW 7 7 4 4 1001.6 - 4.8
28/01:00am 25.9 30.8 24.3 91 1.1 WSW 6 7 3 4 1002.1 - 4.8
28/12:30am 25.8 30.4 24.1 90 1.2 WNW 7 13 4 7 1002.4 - 4.8
28/12:00am 25.9 30.6 24.0 89 1.3 W 6 7 3 4 1002.7 1002.6 4.8
 
Date/Time
EST
Temp
°C
App
Temp
°C
Dew
Point
Rel
Hum
%
Delta-T
°C
Wind Press
QNH
hPa
Press
MSL
hPa
Rain
since 9 am
mm
Dir
 
Spd
km/h
Gust
km/h
Spd
kts
Gust
kts
27/11:30pm 26.0 32.2 24.6 92 1.0 CALM 0 0 0 0 1002.9 - 4.8
27/11:00pm 26.0 31.1 24.6 92 1.0 W 6 9 3 5 1003.4 - 4.8
27/10:30pm 26.3 32.4 24.4 89 1.3 CALM 0 0 0 0 1003.5 - 4.8
27/10:00pm 26.2 32.5 24.8 92 1.0 CALM 0 0 0 0 1003.4 - 4.8
27/09:30pm 26.6 31.3 24.3 87 1.6 WNW 7 11 4 6 1003.2 - 4.8
27/09:00pm 26.2 31.4 24.8 92 1.0 NW 6 9 3 5 1002.9 1002.8 4.8
27/08:30pm 26.5 31.2 24.3 88 1.5 WNW 7 9 4 5 1002.8 - 4.8
27/08:00pm 26.2 31.2 24.8 92 1.0 NW 7 9 4 5 1002.9 - 4.8
27/07:30pm 26.4 31.2 24.4 89 1.4 WNW 7 11 4 6 1002.8 - 4.8
27/07:00pm 26.3 31.0 24.3 89 1.4 S 7 11 4 6 1002.5 - 4.8
27/06:30pm 26.5 32.3 23.9 85 1.8 CALM 0 0 0 0 1002.0 - 4.8
27/06:00pm 26.4 32.5 24.4 89 1.4 CALM 0 0 0 0 1001.8 1001.7 4.4
27/05:30pm 26.6 31.2 24.1 86 1.7 SSW 7 9 4 5 1001.5 - 4.0
27/05:00pm 27.0 31.2 24.1 84 2.0 SSE 9 13 5 7 1001.4 - 4.0
27/04:40pm 27.0 31.7 24.9 88 1.5 SSE 9 17 5 9 1001.0 - 4.0
27/04:30pm 27.2 30.7 24.2 84 2.1 S 13 26 7 14 1001.0 - 4.0
27/04:19pm 28.2 30.2 23.9 77 3.0 SSW 20 35 11 19 1000.9 - 1.6
27/04:18pm 28.6 30.5 23.7 75 3.4 SSW 20 35 11 19 1000.9 - 1.0
27/04:00pm 33.8 35.7 22.1 50 8.0 WNW 15 24 8 13 999.8 - 0.0
27/03:30pm 34.4 38.0 22.4 49 8.2 W 7 11 4 6 999.8 - 0.0
27/03:00pm 35.4 37.5 22.5 47 8.9 WNW 15 20 8 11 1000.1 1000.0 0.0
27/02:30pm 35.5 37.2 22.3 46 9.1 NW 17 24 9 13 1000.4 - 0.0
27/02:00pm 34.7 36.5 21.1 45 9.2 WNW 13 26 7 14 1000.7 - 0.0
27/01:30pm 34.7 36.1 21.8 47 8.8 WNW 17 26 9 14 1001.4 - 0.0
27/01:00pm 34.6 36.2 22.2 48 8.5 WNW 17 24 9 13 1002.0 - 0.0
27/12:30pm 33.5 34.3 21.4 49 8.2 W 19 26 10 14 1002.6 - 0.0
27/12:00pm 33.5 35.7 22.6 53 7.5 WNW 15 20 8 11 1003.1 1003.0 0.0
27/11:30am 33.4 34.7 22.3 52 7.6 WNW 19 26 10 14 1003.4 - 0.0
27/11:00am 33.1 35.4 23.5 57 6.7 WNW 17 24 9 13 1003.7 - 0.0
27/10:30am 31.3 33.5 23.2 62 5.6 NW 17 20 9 11 1003.8 - 0.0
27/10:00am 30.6 33.3 22.9 63 5.3 WSW 13 22 7 12 1003.9 - 0.0
27/09:30am 30.8 32.4 22.8 62 5.5 WNW 19 26 10 14 1004.3 - 0.0
27/09:00am 29.8 32.1 22.1 63 5.2 WNW 13 24 7 13 1004.8 1004.7 0.0
27/08:30am 29.1 30.9 22.6 68 4.4 WNW 17 26 9 14 1005.2 - 0.0
27/08:00am 27.6 30.6 22.6 74 3.4 W 11 19 6 10 1005.0 - 0.0
27/07:30am 27.0 29.5 21.8 73 3.5 WNW 11 19 6 10 1004.8 - 0.0
27/07:00am 26.1 27.8 21.0 73 3.4 WNW 13 20 7 11 1004.7 - 0.0
27/06:30am 25.3 27.9 22.0 82 2.2 NW 11 15 6 8 1004.9 - 0.0
27/06:00am 25.2 28.1 21.8 81 2.3 W 9 11 5 6 1004.7 1004.6 0.0
27/05:30am 25.1 28.5 22.0 83 2.1 WNW 7 9 4 5 1004.2 - 0.0
27/05:00am 25.4 28.7 21.8 80 2.4 WSW 7 9 4 5 1004.1 - 0.0
27/04:30am 26.4 28.9 20.3 69 4.0 W 7 11 4 6 1004.2 - 0.0
27/04:00am 26.5 28.6 20.2 68 4.1 W 9 13 5 7 1004.1 - 0.0
27/03:30am 27.0 29.2 20.3 66 4.4 SW 9 11 5 6 1004.3 - 0.0
27/03:00am 27.3 29.2 20.6 67 4.4 WSW 11 15 6 8 1004.3 1004.2 0.0
27/02:30am 27.7 30.7 21.9 70 3.9 WSW 9 15 5 8 1004.5 - 0.0
27/02:00am 27.7 31.5 24.1 81 2.5 WNW 11 17 6 9 1004.7 - 0.0
27/01:30am 28.0 30.7 24.1 79 2.7 WNW 17 24 9 13 1005.5 - 0.0
27/01:00am 28.0 31.2 24.4 81 2.5 WNW 15 24 8 13 1005.3 - 0.0
27/12:30am 28.0 32.0 24.4 81 2.5 W 11 17 6 9 1005.1 - 0.0
27/12:00am 28.2 32.1 24.3 79 2.7 W 11 17 6 9 1005.6 1005.5 0.0
 
Date/Time
EST
Temp
°C
App
Temp
°C
Dew
Point
Rel
Hum
%
Delta-T
°C
Wind Press
QNH
hPa
Press
MSL
hPa
Rain
since 9 am
mm
Dir
 
Spd
km/h
Gust
km/h
Spd
kts
Gust
kts
26/11:30pm 28.3 32.6 24.3 79 2.8 WNW 9 13 5 7 1006.2 - 0.0
26/11:00pm 28.7 32.1 24.1 76 3.2 W 13 20 7 11 1006.7 - 0.0
26/10:30pm 28.8 31.8 24.0 75 3.3 WNW 15 22 8 12 1006.2 - 0.0
26/10:00pm 29.4 32.9 23.5 70 4.1 W 11 17 6 9 1005.9 - 0.0
26/09:30pm 29.9 33.6 23.2 67 4.6 W 9 22 5 12 1005.4 - 0.0
26/09:00pm 30.4 30.0 23.1 65 5.0 NW 30 37 16 20 1004.8 1004.7 0.0
26/08:30pm 30.7 31.9 23.8 66 4.8 NW 24 35 13 19 1004.4 - 0.0
26/08:00pm 31.3 33.4 23.7 64 5.3 WNW 19 24 10 13 1003.9 - 0.0
26/07:30pm 31.1 35.5 23.8 65 5.1 NW 7 11 4 6 1003.4 - 0.0
26/07:00pm 32.3 35.9 23.0 58 6.4 NNW 9 13 5 7 1002.9 - 0.0
26/06:30pm 33.6 37.4 23.4 55 7.1 NNW 9 11 5 6 1002.5 - 0.0
26/06:00pm 34.5 37.7 23.1 51 7.9 WNW 11 17 6 9 1002.2 1002.1 0.0
26/05:30pm 34.4 37.5 23.5 53 7.6 WNW 13 17 7 9 1002.3 - 0.0
26/05:00pm 34.6 36.7 22.4 49 8.4 WNW 15 22 8 12 1002.0 - 0.0
26/04:30pm 35.2 37.1 22.1 46 9.0 W 15 20 8 11 1001.8 - 0.0
26/04:00pm 35.3 36.3 21.7 45 9.3 WNW 19 24 10 13 1002.1 - 0.0
26/03:30pm 35.3 37.3 22.9 48 8.6 WNW 17 26 9 14 1002.2 - 0.0
26/03:00pm 35.3 37.2 22.7 48 8.7 WNW 17 32 9 17 1002.7 1002.6 0.0
26/02:30pm 35.7 37.2 22.7 47 9.0 NW 19 24 10 13 1003.1 - 0.0
26/02:00pm 35.0 37.4 22.9 49 8.4 WNW 15 24 8 13 1003.7 - 0.0
26/01:30pm 34.5 36.6 23.1 51 7.9 WNW 17 30 9 16 1004.4 - 0.0
26/01:00pm 34.3 36.2 23.4 53 7.6 WNW 19 30 10 16 1005.0 - 0.0
26/12:30pm 34.0 35.9 23.7 55 7.2 WNW 20 30 11 16 1005.6 - 0.0
26/12:00pm 33.1 35.6 24.4 60 6.1 WNW 19 24 10 13 1006.1 1006.0 0.0
26/11:30am 33.1 35.6 24.4 60 6.1 WNW 19 37 10 20 1006.8 - 0.0
26/11:00am 31.8 34.2 23.6 62 5.7 W 17 28 9 15 1007.3 - 0.0
26/10:30am 31.2 35.4 24.8 69 4.5 WSW 11 17 6 9 1007.9 - 0.0

Other Formats:

Comma delimited format used in spreadsheet applications
http://www.bom.gov.au/fwo/IDQ60801/IDQ60801.95283.axf

JavaScript Object Notation format (JSON) in row-major order
http://www.bom.gov.au/fwo/IDQ60801/IDQ60801.95283.json